sensor_id;sensor_type;location;lat;lon;timestamp;P1;durP1;ratioP1;P2;durP2;ratioP2
17133;SDS011;8682;52.120;5.252;2022-12-20T00:00:00;1999.90;;;999.90;;
17133;SDS011;8682;52.120;5.252;2022-12-20T00:02:27;1999.90;;;999.90;;
17133;SDS011;8682;52.120;5.252;2022-12-20T00:04:54;1999.90;;;999.90;;
17133;SDS011;8682;52.120;5.252;2022-12-20T00:07:21;1999.90;;;999.90;;
17133;SDS011;8682;52.120;5.252;2022-12-20T00:09:48;1999.90;;;999.90;;
17133;SDS011;8682;52.120;5.252;2022-12-20T00:12:17;1999.90;;;999.90;;
17133;SDS011;8682;52.120;5.252;2022-12-20T00:14:44;1999.90;;;999.90;;
17133;SDS011;8682;52.120;5.252;2022-12-20T00:17:11;1999.90;;;999.90;;
17133;SDS011;8682;52.120;5.252;2022-12-20T00:19:38;1999.90;;;999.90;;
17133;SDS011;8682;52.120;5.252;2022-12-20T00:22:05;1999.90;;;999.90;;
17133;SDS011;8682;52.120;5.252;2022-12-20T00:24:33;1999.90;;;999.90;;
17133;SDS011;8682;52.120;5.252;2022-12-20T00:27:00;1999.90;;;999.90;;
17133;SDS011;8682;52.120;5.252;2022-12-20T00:29:28;1999.90;;;999.90;;
17133;SDS011;8682;52.120;5.252;2022-12-20T00:31:55;1409.30;;;705.63;;
17133;SDS011;8682;52.120;5.252;2022-12-20T00:34:22;1999.90;;;999.90;;
17133;SDS011;8682;52.120;5.252;2022-12-20T00:36:49;1999.90;;;999.90;;
17133;SDS011;8682;52.120;5.252;2022-12-20T00:39:17;1999.90;;;999.90;;
17133;SDS011;8682;52.120;5.252;2022-12-20T00:41:44;1999.90;;;999.90;;
17133;SDS011;8682;52.120;5.252;2022-12-20T00:44:11;1407.73;;;695.37;;
17133;SDS011;8682;52.120;5.252;2022-12-20T00:46:39;1999.90;;;999.90;;
17133;SDS011;8682;52.120;5.252;2022-12-20T00:49:06;1999.90;;;999.90;;
17133;SDS011;8682;52.120;5.252;2022-12-20T00:51:33;1999.90;;;999.90;;
17133;SDS011;8682;52.120;5.252;2022-12-20T00:54:00;1999.90;;;999.90;;
17133;SDS011;8682;52.120;5.252;2022-12-20T00:56:28;1999.90;;;999.90;;
17133;SDS011;8682;52.120;5.252;2022-12-20T00:58:56;1999.90;;;999.90;;
17133;SDS011;8682;52.120;5.252;2022-12-20T01:01:24;1999.90;;;999.90;;
17133;SDS011;8682;52.120;5.252;2022-12-20T01:03:53;1999.90;;;999.90;;
17133;SDS011;8682;52.120;5.252;2022-12-20T01:06:20;1999.90;;;999.90;;
17133;SDS011;8682;52.120;5.252;2022-12-20T01:08:48;1999.90;;;999.90;;
17133;SDS011;8682;52.120;5.252;2022-12-20T01:11:16;1999.90;;;999.90;;
17133;SDS011;8682;52.120;5.252;2022-12-20T01:13:45;1999.90;;;999.90;;
17133;SDS011;8682;52.120;5.252;2022-12-20T01:16:12;1999.90;;;999.90;;
17133;SDS011;8682;52.120;5.252;2022-12-20T01:18:40;1999.90;;;999.90;;
17133;SDS011;8682;52.120;5.252;2022-12-20T01:21:09;1999.90;;;999.90;;
17133;SDS011;8682;52.120;5.252;2022-12-20T01:23:37;1999.90;;;999.90;;
17133;SDS011;8682;52.120;5.252;2022-12-20T01:26:05;1999.90;;;999.90;;
17133;SDS011;8682;52.120;5.252;2022-12-20T01:28:35;1999.90;;;999.90;;
17133;SDS011;8682;52.120;5.252;2022-12-20T01:31:04;1483.10;;;757.20;;
17133;SDS011;8682;52.120;5.252;2022-12-20T01:33:32;1999.90;;;999.90;;
17133;SDS011;8682;52.120;5.252;2022-12-20T01:36:00;1999.90;;;999.90;;
17133;SDS011;8682;52.120;5.252;2022-12-20T01:38:29;1999.90;;;999.90;;
17133;SDS011;8682;52.120;5.252;2022-12-20T01:40:56;1999.90;;;999.90;;
17133;SDS011;8682;52.120;5.252;2022-12-20T01:43:23;1999.90;;;999.90;;
17133;SDS011;8682;52.120;5.252;2022-12-20T01:45:51;1999.90;;;999.90;;
17133;SDS011;8682;52.120;5.252;2022-12-20T01:48:19;1999.90;;;999.90;;
17133;SDS011;8682;52.120;5.252;2022-12-20T01:50:47;1999.90;;;999.90;;
17133;SDS011;8682;52.120;5.252;2022-12-20T01:53:15;1999.90;;;999.90;;
17133;SDS011;8682;52.120;5.252;2022-12-20T01:55:44;1999.90;;;999.90;;
17133;SDS011;8682;52.120;5.252;2022-12-20T01:58:12;1999.90;;;999.90;;
17133;SDS011;8682;52.120;5.252;2022-12-20T02:00:40;1999.90;;;999.90;;
17133;SDS011;8682;52.120;5.252;2022-12-20T02:03:08;1999.90;;;999.90;;
17133;SDS011;8682;52.120;5.252;2022-12-20T02:05:36;1999.90;;;999.90;;
17133;SDS011;8682;52.120;5.252;2022-12-20T02:08:04;1999.90;;;999.90;;
17133;SDS011;8682;52.120;5.252;2022-12-20T02:10:34;1999.90;;;999.90;;
17133;SDS011;8682;52.120;5.252;2022-12-20T02:13:10;1999.90;;;999.90;;
17133;SDS011;8682;52.120;5.252;2022-12-20T02:15:41;1999.90;;;999.90;;
17133;SDS011;8682;52.120;5.252;2022-12-20T02:18:15;1999.90;;;999.90;;
17133;SDS011;8682;52.120;5.252;2022-12-20T02:20:46;1999.90;;;999.90;;
17133;SDS011;8682;52.120;5.252;2022-12-20T02:26:07;1999.90;;;999.90;;
17133;SDS011;8682;52.120;5.252;2022-12-20T02:28:48;1999.90;;;999.90;;
17133;SDS011;8682;52.120;5.252;2022-12-20T02:31:23;1999.90;;;999.90;;
17133;SDS011;8682;52.120;5.252;2022-12-20T02:33:51;1999.90;;;999.90;;
17133;SDS011;8682;52.120;5.252;2022-12-20T02:36:21;1999.90;;;999.90;;
17133;SDS011;8682;52.120;5.252;2022-12-20T02:38:49;1481.10;;;709.63;;
17133;SDS011;8682;52.120;5.252;2022-12-20T02:41:18;1999.90;;;999.90;;
17133;SDS011;8682;52.120;5.252;2022-12-20T02:43:47;1500.77;;;715.20;;
17133;SDS011;8682;52.120;5.252;2022-12-20T02:46:34;1999.90;;;999.90;;
17133;SDS011;8682;52.120;5.252;2022-12-20T02:49:02;1489.73;;;710.37;;
17133;SDS011;8682;52.120;5.252;2022-12-20T02:51:31;607.63;;;196.43;;
17133;SDS011;8682;52.120;5.252;2022-12-20T02:53:58;1537.60;;;726.43;;
17133;SDS011;8682;52.120;5.252;2022-12-20T02:56:26;856.47;;;373.73;;
17133;SDS011;8682;52.120;5.252;2022-12-20T02:58:55;1558.47;;;735.77;;
17133;SDS011;8682;52.120;5.252;2022-12-20T03:01:25;1535.10;;;729.57;;
17133;SDS011;8682;52.120;5.252;2022-12-20T03:03:55;1999.90;;;999.90;;
17133;SDS011;8682;52.120;5.252;2022-12-20T03:06:22;445.73;;;112.33;;
17133;SDS011;8682;52.120;5.252;2022-12-20T03:08:49;480.93;;;134.00;;
17133;SDS011;8682;52.120;5.252;2022-12-20T03:11:17;1613.83;;;762.87;;
17133;SDS011;8682;52.120;5.252;2022-12-20T03:13:44;617.13;;;184.60;;
17133;SDS011;8682;52.120;5.252;2022-12-20T03:16:11;1554.93;;;757.70;;
17133;SDS011;8682;52.120;5.252;2022-12-20T03:18:38;1664.00;;;773.20;;
17133;SDS011;8682;52.120;5.252;2022-12-20T03:21:07;738.97;;;263.37;;
17133;SDS011;8682;52.120;5.252;2022-12-20T03:23:34;395.70;;;105.03;;
17133;SDS011;8682;52.120;5.252;2022-12-20T03:26:01;700.00;;;236.03;;
17133;SDS011;8682;52.120;5.252;2022-12-20T03:28:28;846.13;;;314.27;;
17133;SDS011;8682;52.120;5.252;2022-12-20T03:30:55;1596.37;;;763.43;;
17133;SDS011;8682;52.120;5.252;2022-12-20T03:33:22;671.23;;;220.40;;
17133;SDS011;8682;52.120;5.252;2022-12-20T03:35:49;1606.00;;;781.93;;
17133;SDS011;8682;52.120;5.252;2022-12-20T03:38:18;1530.43;;;744.93;;
17133;SDS011;8682;52.120;5.252;2022-12-20T03:40:45;1581.60;;;762.63;;
17133;SDS011;8682;52.120;5.252;2022-12-20T03:43:12;797.27;;;279.40;;
17133;SDS011;8682;52.120;5.252;2022-12-20T03:45:40;1649.63;;;786.03;;
17133;SDS011;8682;52.120;5.252;2022-12-20T03:48:07;731.07;;;277.20;;
17133;SDS011;8682;52.120;5.252;2022-12-20T03:50:34;776.90;;;246.80;;
17133;SDS011;8682;52.120;5.252;2022-12-20T03:53:01;772.73;;;278.43;;
17133;SDS011;8682;52.120;5.252;2022-12-20T03:55:29;711.40;;;246.90;;
17133;SDS011;8682;52.120;5.252;2022-12-20T03:57:56;1621.23;;;774.27;;
17133;SDS011;8682;52.120;5.252;2022-12-20T04:00:24;1622.87;;;766.93;;
17133;SDS011;8682;52.120;5.252;2022-12-20T04:02:51;1567.83;;;753.40;;
17133;SDS011;8682;52.120;5.252;2022-12-20T04:05:18;1655.03;;;777.57;;
17133;SDS011;8682;52.120;5.252;2022-12-20T04:07:45;1586.30;;;747.60;;
17133;SDS011;8682;52.120;5.252;2022-12-20T04:10:12;1596.83;;;746.20;;
17133;SDS011;8682;52.120;5.252;2022-12-20T04:12:41;1999.90;;;999.90;;
17133;SDS011;8682;52.120;5.252;2022-12-20T04:15:08;1558.60;;;733.50;;
17133;SDS011;8682;52.120;5.252;2022-12-20T04:17:36;335.30;;;84.83;;
17133;SDS011;8682;52.120;5.252;2022-12-20T04:20:03;1526.63;;;720.90;;
17133;SDS011;8682;52.120;5.252;2022-12-20T04:22:43;1516.97;;;712.83;;
17133;SDS011;8682;52.120;5.252;2022-12-20T04:25:10;861.70;;;376.77;;
17133;SDS011;8682;52.120;5.252;2022-12-20T04:27:37;1500.60;;;706.90;;
17133;SDS011;8682;52.120;5.252;2022-12-20T04:30:06;1538.30;;;727.00;;
17133;SDS011;8682;52.120;5.252;2022-12-20T04:32:34;1999.90;;;999.90;;
17133;SDS011;8682;52.120;5.252;2022-12-20T04:35:01;1999.90;;;999.90;;
17133;SDS011;8682;52.120;5.252;2022-12-20T04:37:28;1999.90;;;999.90;;
17133;SDS011;8682;52.120;5.252;2022-12-20T04:39:56;1496.37;;;710.40;;
17133;SDS011;8682;52.120;5.252;2022-12-20T04:42:23;1999.90;;;999.90;;
17133;SDS011;8682;52.120;5.252;2022-12-20T04:44:51;1524.33;;;719.87;;
17133;SDS011;8682;52.120;5.252;2022-12-20T04:47:19;1535.07;;;717.80;;
17133;SDS011;8682;52.120;5.252;2022-12-20T04:49:46;1999.90;;;999.90;;
17133;SDS011;8682;52.120;5.252;2022-12-20T04:52:13;1502.63;;;712.20;;
17133;SDS011;8682;52.120;5.252;2022-12-20T04:54:58;1446.53;;;695.60;;
17133;SDS011;8682;52.120;5.252;2022-12-20T04:57:25;1999.90;;;999.90;;
17133;SDS011;8682;52.120;5.252;2022-12-20T04:59:52;1503.13;;;710.33;;
17133;SDS011;8682;52.120;5.252;2022-12-20T05:02:21;344.23;;;90.13;;
17133;SDS011;8682;52.120;5.252;2022-12-20T05:04:48;1534.13;;;732.70;;
17133;SDS011;8682;52.120;5.252;2022-12-20T05:07:15;1552.63;;;729.53;;
17133;SDS011;8682;52.120;5.252;2022-12-20T05:09:42;585.30;;;178.20;;
17133;SDS011;8682;52.120;5.252;2022-12-20T05:12:09;1604.90;;;752.83;;
17133;SDS011;8682;52.120;5.252;2022-12-20T05:14:36;577.70;;;156.80;;
17133;SDS011;8682;52.120;5.252;2022-12-20T05:17:03;509.60;;;127.60;;
17133;SDS011;8682;52.120;5.252;2022-12-20T05:19:32;1024.83;;;342.57;;
17133;SDS011;8682;52.120;5.252;2022-12-20T05:21:59;1618.77;;;774.57;;
17133;SDS011;8682;52.120;5.252;2022-12-20T05:24:44;697.90;;;215.80;;
17133;SDS011;8682;52.120;5.252;2022-12-20T05:27:28;645.90;;;235.37;;
17133;SDS011;8682;52.120;5.252;2022-12-20T05:29:55;909.43;;;338.00;;
17133;SDS011;8682;52.120;5.252;2022-12-20T05:32:23;1113.10;;;400.03;;
17133;SDS011;8682;52.120;5.252;2022-12-20T05:34:51;773.53;;;364.97;;
17133;SDS011;8682;52.120;5.252;2022-12-20T05:37:18;1193.17;;;489.97;;
17133;SDS011;8682;52.120;5.252;2022-12-20T05:39:45;869.27;;;381.90;;
17133;SDS011;8682;52.120;5.252;2022-12-20T05:42:12;1056.57;;;496.73;;
17133;SDS011;8682;52.120;5.252;2022-12-20T05:44:40;1086.53;;;480.43;;
17133;SDS011;8682;52.120;5.252;2022-12-20T05:47:07;807.33;;;355.67;;
17133;SDS011;8682;52.120;5.252;2022-12-20T05:49:34;1251.60;;;477.83;;
17133;SDS011;8682;52.120;5.252;2022-12-20T05:52:02;1254.00;;;597.83;;
17133;SDS011;8682;52.120;5.252;2022-12-20T05:54:29;1083.47;;;563.47;;
17133;SDS011;8682;52.120;5.252;2022-12-20T05:56:57;1180.60;;;472.90;;
17133;SDS011;8682;52.120;5.252;2022-12-20T05:59:24;335.45;;;318.35;;
17133;SDS011;8682;52.120;5.252;2022-12-20T06:01:51;213.60;;;183.00;;
17133;SDS011;8682;52.120;5.252;2022-12-20T06:04:18;895.20;;;608.00;;
17133;SDS011;8682;52.120;5.252;2022-12-20T06:06:46;1308.13;;;769.80;;
17133;SDS011;8682;52.120;5.252;2022-12-20T06:09:14;1247.73;;;731.17;;
17133;SDS011;8682;52.120;5.252;2022-12-20T06:11:41;1306.03;;;731.83;;
17133;SDS011;8682;52.120;5.252;2022-12-20T06:14:08;1201.33;;;660.20;;
17133;SDS011;8682;52.120;5.252;2022-12-20T06:16:35;1783.03;;;791.63;;
17133;SDS011;8682;52.120;5.252;2022-12-20T06:19:02;1101.33;;;640.43;;
17133;SDS011;8682;52.120;5.252;2022-12-20T06:21:29;1522.67;;;861.07;;
17133;SDS011;8682;52.120;5.252;2022-12-20T06:23:57;1164.57;;;658.37;;
17133;SDS011;8682;52.120;5.252;2022-12-20T06:26:26;1393.07;;;743.43;;
17133;SDS011;8682;52.120;5.252;2022-12-20T06:29:00;1182.00;;;599.63;;
17133;SDS011;8682;52.120;5.252;2022-12-20T06:31:27;1422.87;;;756.00;;
17133;SDS011;8682;52.120;5.252;2022-12-20T06:33:54;1360.70;;;734.37;;
17133;SDS011;8682;52.120;5.252;2022-12-20T06:36:21;1430.13;;;708.73;;
17133;SDS011;8682;52.120;5.252;2022-12-20T06:38:48;1135.43;;;478.13;;
17133;SDS011;8682;52.120;5.252;2022-12-20T06:41:15;1170.27;;;531.33;;
17133;SDS011;8682;52.120;5.252;2022-12-20T06:43:44;1394.03;;;533.20;;
17133;SDS011;8682;52.120;5.252;2022-12-20T06:46:11;1237.13;;;451.37;;
17133;SDS011;8682;52.120;5.252;2022-12-20T06:48:38;1224.30;;;448.00;;
17133;SDS011;8682;52.120;5.252;2022-12-20T06:51:05;945.30;;;267.57;;
17133;SDS011;8682;52.120;5.252;2022-12-20T06:53:32;775.13;;;223.57;;
17133;SDS011;8682;52.120;5.252;2022-12-20T06:55:59;815.57;;;250.93;;
17133;SDS011;8682;52.120;5.252;2022-12-20T06:58:26;690.03;;;210.20;;
17133;SDS011;8682;52.120;5.252;2022-12-20T07:00:55;1656.47;;;752.53;;
17133;SDS011;8682;52.120;5.252;2022-12-20T07:03:22;1648.90;;;761.63;;
17133;SDS011;8682;52.120;5.252;2022-12-20T07:05:50;1610.77;;;749.10;;
17133;SDS011;8682;52.120;5.252;2022-12-20T07:08:18;1639.13;;;761.53;;
17133;SDS011;8682;52.120;5.252;2022-12-20T07:10:45;1512.53;;;719.67;;
17133;SDS011;8682;52.120;5.252;2022-12-20T07:13:12;858.57;;;399.20;;
17133;SDS011;8682;52.120;5.252;2022-12-20T07:15:39;1999.90;;;999.90;;
17133;SDS011;8682;52.120;5.252;2022-12-20T07:18:07;1999.90;;;999.90;;
17133;SDS011;8682;52.120;5.252;2022-12-20T07:20:34;1999.90;;;999.90;;
17133;SDS011;8682;52.120;5.252;2022-12-20T07:23:02;1999.90;;;999.90;;
17133;SDS011;8682;52.120;5.252;2022-12-20T07:25:29;1999.90;;;999.90;;
17133;SDS011;8682;52.120;5.252;2022-12-20T07:27:56;1999.90;;;999.90;;
17133;SDS011;8682;52.120;5.252;2022-12-20T07:30:23;1999.90;;;999.90;;
17133;SDS011;8682;52.120;5.252;2022-12-20T07:32:50;1999.90;;;999.90;;
17133;SDS011;8682;52.120;5.252;2022-12-20T07:35:19;1439.07;;;693.07;;
17133;SDS011;8682;52.120;5.252;2022-12-20T07:37:46;1999.90;;;999.90;;
17133;SDS011;8682;52.120;5.252;2022-12-20T07:40:13;1999.90;;;999.90;;
17133;SDS011;8682;52.120;5.252;2022-12-20T07:42:40;1999.90;;;999.90;;
17133;SDS011;8682;52.120;5.252;2022-12-20T07:45:08;1999.90;;;999.90;;
17133;SDS011;8682;52.120;5.252;2022-12-20T07:47:35;1999.90;;;999.90;;
17133;SDS011;8682;52.120;5.252;2022-12-20T07:50:02;1999.90;;;999.90;;
17133;SDS011;8682;52.120;5.252;2022-12-20T07:52:31;1999.90;;;999.90;;
17133;SDS011;8682;52.120;5.252;2022-12-20T07:54:59;1999.90;;;999.90;;
17133;SDS011;8682;52.120;5.252;2022-12-20T07:57:28;1999.90;;;999.90;;
17133;SDS011;8682;52.120;5.252;2022-12-20T07:59:57;1999.90;;;999.90;;
17133;SDS011;8682;52.120;5.252;2022-12-20T08:02:25;1999.90;;;999.90;;
17133;SDS011;8682;52.120;5.252;2022-12-20T08:04:53;1999.90;;;999.90;;
17133;SDS011;8682;52.120;5.252;2022-12-20T08:07:21;1999.90;;;999.90;;
17133;SDS011;8682;52.120;5.252;2022-12-20T08:09:49;1510.23;;;731.33;;
17133;SDS011;8682;52.120;5.252;2022-12-20T08:12:17;1488.77;;;718.00;;
17133;SDS011;8682;52.120;5.252;2022-12-20T08:14:45;1999.90;;;999.90;;
17133;SDS011;8682;52.120;5.252;2022-12-20T08:17:16;1581.87;;;739.63;;
17133;SDS011;8682;52.120;5.252;2022-12-20T08:19:43;1520.87;;;739.40;;
17133;SDS011;8682;52.120;5.252;2022-12-20T08:22:11;423.60;;;136.07;;
17133;SDS011;8682;52.120;5.252;2022-12-20T08:24:38;1590.70;;;754.80;;
17133;SDS011;8682;52.120;5.252;2022-12-20T08:27:07;1618.83;;;748.37;;
17133;SDS011;8682;52.120;5.252;2022-12-20T08:29:34;656.10;;;171.77;;
17133;SDS011;8682;52.120;5.252;2022-12-20T08:32:01;562.37;;;157.93;;
17133;SDS011;8682;52.120;5.252;2022-12-20T08:34:28;438.90;;;127.87;;
17133;SDS011;8682;52.120;5.252;2022-12-20T08:36:55;1609.37;;;758.80;;
17133;SDS011;8682;52.120;5.252;2022-12-20T08:39:22;1599.33;;;750.43;;
17133;SDS011;8682;52.120;5.252;2022-12-20T08:41:49;595.17;;;169.17;;
17133;SDS011;8682;52.120;5.252;2022-12-20T08:44:18;1641.20;;;774.70;;
17133;SDS011;8682;52.120;5.252;2022-12-20T08:46:45;767.37;;;239.57;;
17133;SDS011;8682;52.120;5.252;2022-12-20T08:49:12;1691.87;;;781.37;;
17133;SDS011;8682;52.120;5.252;2022-12-20T08:51:39;1614.77;;;765.77;;
17133;SDS011;8682;52.120;5.252;2022-12-20T08:54:06;866.27;;;314.33;;
17133;SDS011;8682;52.120;5.252;2022-12-20T08:56:33;839.33;;;291.37;;
17133;SDS011;8682;52.120;5.252;2022-12-20T08:59:01;1678.13;;;794.13;;
17133;SDS011;8682;52.120;5.252;2022-12-20T09:01:30;900.70;;;290.07;;
17133;SDS011;8682;52.120;5.252;2022-12-20T09:03:58;1650.87;;;782.10;;
17133;SDS011;8682;52.120;5.252;2022-12-20T09:06:25;1079.37;;;439.83;;
17133;SDS011;8682;52.120;5.252;2022-12-20T09:08:52;837.50;;;275.73;;
17133;SDS011;8682;52.120;5.252;2022-12-20T09:11:21;867.93;;;304.30;;
17133;SDS011;8682;52.120;5.252;2022-12-20T09:13:49;883.87;;;316.17;;
17133;SDS011;8682;52.120;5.252;2022-12-20T09:16:17;936.57;;;408.30;;
17133;SDS011;8682;52.120;5.252;2022-12-20T09:18:48;1142.67;;;493.47;;
17133;SDS011;8682;52.120;5.252;2022-12-20T09:21:16;985.23;;;429.23;;
17133;SDS011;8682;52.120;5.252;2022-12-20T09:23:44;971.17;;;453.13;;
17133;SDS011;8682;52.120;5.252;2022-12-20T09:26:11;1207.03;;;550.67;;
17133;SDS011;8682;52.120;5.252;2022-12-20T09:28:39;1214.07;;;575.03;;
17133;SDS011;8682;52.120;5.252;2022-12-20T09:31:06;1228.90;;;618.30;;
17133;SDS011;8682;52.120;5.252;2022-12-20T09:33:35;1175.00;;;618.90;;
17133;SDS011;8682;52.120;5.252;2022-12-20T09:36:04;1054.17;;;558.03;;
17133;SDS011;8682;52.120;5.252;2022-12-20T09:38:31;1002.97;;;528.53;;
17133;SDS011;8682;52.120;5.252;2022-12-20T09:40:59;986.10;;;585.60;;
17133;SDS011;8682;52.120;5.252;2022-12-20T09:43:27;1185.47;;;646.70;;
17133;SDS011;8682;52.120;5.252;2022-12-20T09:45:55;1215.93;;;631.83;;
17133;SDS011;8682;52.120;5.252;2022-12-20T09:48:24;1556.03;;;709.50;;
17133;SDS011;8682;52.120;5.252;2022-12-20T09:50:56;1352.57;;;707.83;;
17133;SDS011;8682;52.120;5.252;2022-12-20T09:53:27;1226.30;;;682.03;;
17133;SDS011;8682;52.120;5.252;2022-12-20T09:55:59;1335.60;;;710.23;;
17133;SDS011;8682;52.120;5.252;2022-12-20T09:58:35;1096.47;;;674.00;;
17133;SDS011;8682;52.120;5.252;2022-12-20T10:01:10;1024.50;;;570.70;;
17133;SDS011;8682;52.120;5.252;2022-12-20T10:03:40;1184.37;;;655.90;;
17133;SDS011;8682;52.120;5.252;2022-12-20T10:06:08;1203.57;;;664.13;;
17133;SDS011;8682;52.120;5.252;2022-12-20T10:08:42;1207.27;;;671.77;;
17133;SDS011;8682;52.120;5.252;2022-12-20T10:11:12;1162.87;;;695.77;;
17133;SDS011;8682;52.120;5.252;2022-12-20T10:13:46;1155.03;;;678.47;;
17133;SDS011;8682;52.120;5.252;2022-12-20T10:16:23;853.10;;;513.20;;
17133;SDS011;8682;52.120;5.252;2022-12-20T10:18:55;1176.87;;;687.67;;
17133;SDS011;8682;52.120;5.252;2022-12-20T10:21:26;1191.57;;;665.07;;
17133;SDS011;8682;52.120;5.252;2022-12-20T10:23:58;1358.00;;;690.80;;
17133;SDS011;8682;52.120;5.252;2022-12-20T10:26:26;1003.97;;;589.13;;
17133;SDS011;8682;52.120;5.252;2022-12-20T10:28:53;1254.20;;;743.83;;
17133;SDS011;8682;52.120;5.252;2022-12-20T10:31:20;991.67;;;590.23;;
17133;SDS011;8682;52.120;5.252;2022-12-20T10:33:48;1133.23;;;643.37;;
17133;SDS011;8682;52.120;5.252;2022-12-20T10:36:19;1211.13;;;707.87;;
17133;SDS011;8682;52.120;5.252;2022-12-20T10:38:49;1018.43;;;611.70;;
17133;SDS011;8682;52.120;5.252;2022-12-20T10:41:18;996.90;;;624.03;;
17133;SDS011;8682;52.120;5.252;2022-12-20T10:43:46;1133.07;;;756.90;;
17133;SDS011;8682;52.120;5.252;2022-12-20T10:46:14;1383.10;;;747.00;;
17133;SDS011;8682;52.120;5.252;2022-12-20T10:48:42;1039.30;;;621.27;;
17133;SDS011;8682;52.120;5.252;2022-12-20T10:51:12;1038.33;;;674.60;;
17133;SDS011;8682;52.120;5.252;2022-12-20T10:53:48;1007.67;;;629.73;;
17133;SDS011;8682;52.120;5.252;2022-12-20T10:56:18;1047.03;;;576.57;;
17133;SDS011;8682;52.120;5.252;2022-12-20T10:58:54;1151.00;;;638.53;;
17133;SDS011;8682;52.120;5.252;2022-12-20T11:01:21;1011.07;;;645.23;;
17133;SDS011;8682;52.120;5.252;2022-12-20T11:03:51;921.60;;;615.40;;
17133;SDS011;8682;52.120;5.252;2022-12-20T11:06:19;965.27;;;583.63;;
17133;SDS011;8682;52.120;5.252;2022-12-20T11:08:46;939.30;;;559.07;;
17133;SDS011;8682;52.120;5.252;2022-12-20T11:11:15;1295.80;;;644.77;;
17133;SDS011;8682;52.120;5.252;2022-12-20T11:13:44;927.70;;;622.43;;
17133;SDS011;8682;52.120;5.252;2022-12-20T11:16:22;1007.97;;;660.83;;
17133;SDS011;8682;52.120;5.252;2022-12-20T11:18:51;956.13;;;491.23;;
17133;SDS011;8682;52.120;5.252;2022-12-20T11:21:22;1041.63;;;632.43;;
17133;SDS011;8682;52.120;5.252;2022-12-20T11:23:53;972.23;;;620.57;;
17133;SDS011;8682;52.120;5.252;2022-12-20T11:26:25;896.73;;;589.93;;
17133;SDS011;8682;52.120;5.252;2022-12-20T11:29:05;1067.37;;;637.70;;
17133;SDS011;8682;52.120;5.252;2022-12-20T11:31:38;996.83;;;641.10;;
17133;SDS011;8682;52.120;5.252;2022-12-20T11:34:11;944.10;;;637.73;;
17133;SDS011;8682;52.120;5.252;2022-12-20T11:36:45;947.40;;;629.33;;
17133;SDS011;8682;52.120;5.252;2022-12-20T11:39:20;1124.70;;;677.47;;
17133;SDS011;8682;52.120;5.252;2022-12-20T11:41:54;1080.77;;;679.40;;
17133;SDS011;8682;52.120;5.252;2022-12-20T11:44:27;1092.30;;;658.37;;
17133;SDS011;8682;52.120;5.252;2022-12-20T11:46:59;843.13;;;551.33;;
17133;SDS011;8682;52.120;5.252;2022-12-20T11:49:33;970.77;;;691.93;;
17133;SDS011;8682;52.120;5.252;2022-12-20T11:52:03;1100.77;;;684.77;;
17133;SDS011;8682;52.120;5.252;2022-12-20T11:54:31;893.10;;;570.33;;
17133;SDS011;8682;52.120;5.252;2022-12-20T11:57:02;861.67;;;534.23;;
17133;SDS011;8682;52.120;5.252;2022-12-20T11:59:33;926.50;;;573.43;;
17133;SDS011;8682;52.120;5.252;2022-12-20T12:02:03;910.20;;;663.47;;
17133;SDS011;8682;52.120;5.252;2022-12-20T12:04:32;1035.50;;;660.63;;
17133;SDS011;8682;52.120;5.252;2022-12-20T12:07:00;1458.07;;;787.33;;
17133;SDS011;8682;52.120;5.252;2022-12-20T12:09:29;846.73;;;610.80;;
17133;SDS011;8682;52.120;5.252;2022-12-20T12:12:00;972.63;;;611.90;;
17133;SDS011;8682;52.120;5.252;2022-12-20T12:14:32;891.50;;;581.40;;
17133;SDS011;8682;52.120;5.252;2022-12-20T12:17:06;837.83;;;576.90;;
17133;SDS011;8682;52.120;5.252;2022-12-20T12:19:35;765.37;;;516.73;;
17133;SDS011;8682;52.120;5.252;2022-12-20T12:22:04;940.97;;;565.87;;
17133;SDS011;8682;52.120;5.252;2022-12-20T12:24:33;801.00;;;537.37;;
17133;SDS011;8682;52.120;5.252;2022-12-20T12:27:03;847.17;;;546.03;;
17133;SDS011;8682;52.120;5.252;2022-12-20T12:29:32;794.23;;;530.83;;
17133;SDS011;8682;52.120;5.252;2022-12-20T12:32:01;732.20;;;541.67;;
17133;SDS011;8682;52.120;5.252;2022-12-20T12:34:34;787.83;;;542.20;;
17133;SDS011;8682;52.120;5.252;2022-12-20T12:37:15;975.80;;;617.57;;
17133;SDS011;8682;52.120;5.252;2022-12-20T12:39:49;948.67;;;649.53;;
17133;SDS011;8682;52.120;5.252;2022-12-20T12:42:26;1047.73;;;639.83;;
17133;SDS011;8682;52.120;5.252;2022-12-20T12:45:02;1082.53;;;655.80;;
17133;SDS011;8682;52.120;5.252;2022-12-20T12:47:33;921.77;;;625.20;;
17133;SDS011;8682;52.120;5.252;2022-12-20T12:50:02;849.77;;;577.10;;
17133;SDS011;8682;52.120;5.252;2022-12-20T12:52:39;818.73;;;566.73;;
17133;SDS011;8682;52.120;5.252;2022-12-20T12:57:55;963.37;;;620.50;;
17133;SDS011;8682;52.120;5.252;2022-12-20T13:03:14;1107.73;;;665.23;;
17133;SDS011;8682;52.120;5.252;2022-12-20T13:05:41;893.53;;;529.50;;
17133;SDS011;8682;52.120;5.252;2022-12-20T13:08:14;783.50;;;547.23;;
17133;SDS011;8682;52.120;5.252;2022-12-20T13:11:01;745.20;;;536.70;;
17133;SDS011;8682;52.120;5.252;2022-12-20T13:13:28;1043.40;;;645.00;;
17133;SDS011;8682;52.120;5.252;2022-12-20T13:16:11;835.67;;;585.23;;
17133;SDS011;8682;52.120;5.252;2022-12-20T13:21:31;1355.00;;;797.20;;
17133;SDS011;8682;52.120;5.252;2022-12-20T13:26:48;967.60;;;604.50;;
17133;SDS011;8682;52.120;5.252;2022-12-20T13:29:23;863.30;;;559.07;;
17133;SDS011;8682;52.120;5.252;2022-12-20T13:31:51;937.87;;;614.00;;
17133;SDS011;8682;52.120;5.252;2022-12-20T13:34:38;732.27;;;533.00;;
17133;SDS011;8682;52.120;5.252;2022-12-20T13:37:25;946.87;;;619.30;;
17133;SDS011;8682;52.120;5.252;2022-12-20T13:39:53;1031.87;;;636.97;;
17133;SDS011;8682;52.120;5.252;2022-12-20T13:42:25;961.90;;;599.03;;
17133;SDS011;8682;52.120;5.252;2022-12-20T13:44:55;1031.50;;;628.97;;
17133;SDS011;8682;52.120;5.252;2022-12-20T13:50:26;826.30;;;584.57;;
17133;SDS011;8682;52.120;5.252;2022-12-20T13:52:55;1048.70;;;683.10;;
17133;SDS011;8682;52.120;5.252;2022-12-20T13:55:24;852.17;;;566.83;;
17133;SDS011;8682;52.120;5.252;2022-12-20T13:57:52;739.20;;;545.07;;
17133;SDS011;8682;52.120;5.252;2022-12-20T14:00:21;747.80;;;539.60;;
17133;SDS011;8682;52.120;5.252;2022-12-20T14:02:50;825.93;;;567.23;;
17133;SDS011;8682;52.120;5.252;2022-12-20T14:05:18;747.27;;;531.97;;
17133;SDS011;8682;52.120;5.252;2022-12-20T14:07:50;802.30;;;582.40;;
17133;SDS011;8682;52.120;5.252;2022-12-20T14:10:20;782.43;;;557.33;;
17133;SDS011;8682;52.120;5.252;2022-12-20T14:12:49;801.80;;;569.30;;
17133;SDS011;8682;52.120;5.252;2022-12-20T14:15:20;861.80;;;607.20;;
17133;SDS011;8682;52.120;5.252;2022-12-20T14:17:48;818.43;;;553.30;;
17133;SDS011;8682;52.120;5.252;2022-12-20T14:20:16;737.67;;;516.90;;
17133;SDS011;8682;52.120;5.252;2022-12-20T14:22:47;727.23;;;519.77;;
17133;SDS011;8682;52.120;5.252;2022-12-20T14:25:21;887.73;;;591.00;;
17133;SDS011;8682;52.120;5.252;2022-12-20T14:27:50;778.47;;;566.27;;